Sakarya, Turkey
Current Conditions -  °F | °C
As of 6:13 PM on Sunday 21 Dec 2014 (Local Time) from LTBQ Reporting Station
Rain Showers Rain Showers  
Wind Chill: 39°   Ceiling: 2300
Heat Index: 46°   Visibility: 2.5mi
Dew Point: 45°   Wind: 20mph
Humidity: 93%   Direction: 280°W
Pressure: 30.06"   Gusts: 35mph
Location:  40.75°N, 30.45°E
Report Text: LTBQ 211513Z 28017G30KT 240V310 4000 SHRA SCT009 BKN023 BKN07008/07 Q1018 BECMG TL1600 27007KT 6000 NSW RMK RWY09 30018G28KT260V340
Loading
Personal Weather Stations






























Interactive Weather Map New forecast layout! Learn more

10-Day Weather Forecast

Advertisements
Track Severe Weather on mobile